createdAt,value
2022-11-15T00:01:20.906Z,101305.64
2022-11-15T00:03:52.453Z,101304.18
2022-11-15T00:06:20.633Z,101299.66
2022-11-15T00:08:48.915Z,101295.25
2022-11-15T00:11:16.995Z,101293.92
2022-11-15T00:13:45.437Z,101291.36
2022-11-15T00:16:13.469Z,101290.95
2022-11-15T00:18:45.137Z,101290.98
2022-11-15T00:21:16.706Z,101286.86
2022-11-15T00:23:44.799Z,101291.64
2022-11-15T00:26:15.434Z,101287.65
2022-11-15T00:28:43.987Z,101286.79
2022-11-15T00:31:15.064Z,101288.20
2022-11-15T00:33:45.288Z,101286.39
2022-11-15T00:36:14.154Z,101288.27
2022-11-15T00:38:42.773Z,101286.02
2022-11-15T00:41:10.811Z,101284.02
2022-11-15T00:43:39.022Z,101284.70
2022-11-15T00:46:07.202Z,101285.49
2022-11-15T00:48:35.523Z,101279.11
2022-11-15T00:51:03.864Z,101279.93
2022-11-15T00:53:32.161Z,101285.44
2022-11-15T00:56:00.662Z,101284.81
2022-11-15T00:58:28.914Z,101278.52
2022-11-15T01:00:57.084Z,101283.11
2022-11-15T01:03:25.473Z,101278.59
2022-11-15T01:05:53.447Z,101277.64
2022-11-15T01:08:21.440Z,101270.00
2022-11-15T01:10:49.928Z,101270.05
2022-11-15T01:13:17.933Z,101269.97
2022-11-15T01:15:46.066Z,101268.93
2022-11-15T01:18:14.444Z,101268.48
2022-11-15T01:20:43.550Z,101267.28
2022-11-15T01:23:11.823Z,101266.40
2022-11-15T01:25:40.203Z,101266.59
2022-11-15T01:28:08.590Z,101261.45
2022-11-15T01:30:37.378Z,101261.31
2022-11-15T01:33:05.968Z,101261.77
2022-11-15T01:35:34.359Z,101258.48
2022-11-15T01:38:02.586Z,101256.89
2022-11-15T01:40:30.770Z,101259.64
2022-11-15T01:42:58.888Z,101256.45
2022-11-15T01:45:27.679Z,101254.58
2022-11-15T01:47:57.292Z,101253.54
2022-11-15T01:50:30.516Z,101251.20
2022-11-15T01:52:58.967Z,101245.36
2022-11-15T01:55:29.246Z,101240.83
2022-11-15T01:58:04.635Z,101235.67
2022-11-15T02:00:33.354Z,101230.06
2022-11-15T02:03:03.245Z,101228.67
2022-11-15T02:05:32.798Z,101228.28
2022-11-15T02:08:01.782Z,101223.59
2022-11-15T02:10:29.962Z,101215.97
2022-11-15T02:13:00.356Z,101218.13
2022-11-15T02:15:48.490Z,101213.31
2022-11-15T02:18:45.381Z,101212.73
2022-11-15T02:21:16.028Z,101209.88
2022-11-15T02:24:17.024Z,101211.10
2022-11-15T02:27:23.747Z,101207.52
2022-11-15T02:30:03.822Z,101206.36
2022-11-15T02:32:38.006Z,101204.36
2022-11-15T02:35:44.468Z,101202.81
2022-11-15T02:38:41.705Z,101195.72
2022-11-15T02:41:19.320Z,101192.30
2022-11-15T02:43:51.254Z,101189.60
2022-11-15T02:46:29.669Z,101181.52
2022-11-15T02:48:58.151Z,101180.73
2022-11-15T02:51:26.331Z,101176.25
2022-11-15T02:53:54.798Z,101174.79
2022-11-15T02:56:23.001Z,101173.86
2022-11-15T02:59:32.619Z,101172.34
2022-11-15T03:02:25.153Z,101172.49
2022-11-15T03:05:03.118Z,101172.24
2022-11-15T03:07:36.375Z,101168.86
2022-11-15T03:10:52.875Z,101172.23
2022-11-15T03:14:03.833Z,101159.23
2022-11-15T03:16:41.610Z,101160.11
2022-11-15T03:19:41.596Z,101158.34
2022-11-15T03:22:15.553Z,101156.55
2022-11-15T03:24:46.466Z,101149.90
2022-11-15T03:27:18.780Z,101151.73
2022-11-15T03:29:51.689Z,101148.98
2022-11-15T03:32:29.189Z,101149.23
2022-11-15T03:35:08.418Z,101148.27
2022-11-15T03:38:00.638Z,101146.18
2022-11-15T03:41:04.891Z,101136.36
2022-11-15T03:43:53.574Z,101132.08
2022-11-15T03:46:46.015Z,101129.28
2022-11-15T03:49:21.168Z,101129.30
2022-11-15T03:51:49.473Z,101123.55
2022-11-15T03:54:17.528Z,101124.87
2022-11-15T03:56:45.704Z,101125.68
2022-11-15T03:59:13.795Z,101118.46
2022-11-15T04:01:42.010Z,101122.52
2022-11-15T04:04:10.395Z,101123.93
2022-11-15T04:06:39.174Z,101128.30
2022-11-15T04:09:07.404Z,101122.85
2022-11-15T04:11:35.626Z,101125.09
2022-11-15T04:14:03.689Z,101126.64
2022-11-15T04:16:31.756Z,101125.59
2022-11-15T04:18:59.861Z,101120.26
2022-11-15T04:21:27.987Z,101117.08
2022-11-15T04:23:56.168Z,101111.06
2022-11-15T04:26:24.845Z,101106.30
2022-11-15T04:28:52.909Z,101102.36
2022-11-15T04:31:20.968Z,101109.98
2022-11-15T04:33:49.219Z,101105.19
2022-11-15T04:36:17.273Z,101105.92
2022-11-15T04:38:45.745Z,101105.35
2022-11-15T04:41:14.534Z,101106.97
2022-11-15T04:43:42.712Z,101105.07
2022-11-15T04:46:10.810Z,101099.58
2022-11-15T04:48:39.095Z,101099.13
2022-11-15T04:51:07.389Z,101105.49
2022-11-15T04:53:35.455Z,101111.77
2022-11-15T04:56:04.320Z,101114.68
2022-11-15T04:58:32.420Z,101117.17
2022-11-15T05:01:09.174Z,101117.95
2022-11-15T05:03:37.766Z,101116.31
2022-11-15T05:06:06.791Z,101112.20
2022-11-15T05:08:34.858Z,101109.14
2022-11-15T05:11:02.935Z,101111.50
2022-11-15T05:13:31.331Z,101110.67
2022-11-15T05:15:59.790Z,101109.73
2022-11-15T05:18:27.817Z,101110.77
2022-11-15T05:20:56.236Z,101109.47
2022-11-15T05:23:24.727Z,101106.91
2022-11-15T05:25:52.940Z,101107.64
2022-11-15T05:28:21.181Z,101101.44
2022-11-15T05:30:49.361Z,101102.71
2022-11-15T05:33:18.257Z,101102.70
2022-11-15T05:35:57.858Z,101102.17
2022-11-15T05:38:26.357Z,101106.61
2022-11-15T05:40:55.378Z,101103.97
2022-11-15T05:43:24.666Z,101111.23
2022-11-15T05:45:52.959Z,101115.27
2022-11-15T05:48:21.357Z,101116.08
2022-11-15T05:50:50.026Z,101117.34
2022-11-15T05:53:22.350Z,101118.64
2022-11-15T05:55:50.791Z,101114.31
2022-11-15T05:58:21.619Z,101117.07
2022-11-15T06:00:49.793Z,101119.05
2022-11-15T06:03:17.928Z,101117.64
2022-11-15T06:05:45.992Z,101115.84
2022-11-15T06:08:14.048Z,101117.20
2022-11-15T06:10:42.751Z,101119.45
2022-11-15T06:13:11.045Z,101120.95
2022-11-15T06:15:39.085Z,101126.42
2022-11-15T06:18:07.495Z,101131.31
2022-11-15T06:20:35.593Z,101129.24
2022-11-15T06:23:05.888Z,101130.31
2022-11-15T06:25:34.305Z,101132.29
2022-11-15T06:28:02.393Z,101128.90
2022-11-15T06:30:30.457Z,101126.81
2022-11-15T06:33:03.732Z,101131.55
2022-11-15T06:35:34.770Z,101131.88
2022-11-15T06:38:08.121Z,101126.34
2022-11-15T06:40:38.078Z,101127.20
2022-11-15T06:43:07.111Z,101125.73
2022-11-15T06:45:35.765Z,101122.11
2022-11-15T06:48:03.958Z,101123.33
2022-11-15T06:50:32.020Z,101124.85
2022-11-15T06:53:05.402Z,101123.27
2022-11-15T06:55:33.450Z,101122.10
2022-11-15T06:58:01.490Z,101122.36
2022-11-15T07:00:29.678Z,101123.79
2022-11-15T07:03:01.205Z,101127.41
2022-11-15T07:05:29.641Z,101130.52
2022-11-15T07:07:59.646Z,101134.08
2022-11-15T07:10:28.509Z,101130.98
2022-11-15T07:12:57.675Z,101131.70
2022-11-15T07:15:26.986Z,101133.34
2022-11-15T07:17:55.068Z,101130.95
2022-11-15T07:20:23.237Z,101133.64
2022-11-15T07:22:51.383Z,101138.17
2022-11-15T07:25:21.779Z,101141.85
2022-11-15T07:27:56.550Z,101145.12
2022-11-15T07:30:26.551Z,101143.35
2022-11-15T07:33:01.644Z,101143.97
2022-11-15T07:35:31.067Z,101146.39
2022-11-15T07:38:01.862Z,101151.15
2022-11-15T07:40:32.461Z,101149.70
2022-11-15T07:43:05.707Z,101151.24
2022-11-15T07:45:33.883Z,101151.86
2022-11-15T07:48:02.684Z,101155.80
2022-11-15T07:50:30.952Z,101155.63
2022-11-15T07:53:01.179Z,101162.48
2022-11-15T07:55:29.970Z,101162.94
2022-11-15T07:58:06.211Z,101163.48
2022-11-15T08:00:35.389Z,101164.55
2022-11-15T08:03:12.105Z,101166.80
2022-11-15T08:05:41.824Z,101167.64
2022-11-15T08:08:12.106Z,101168.98
2022-11-15T08:10:40.928Z,101173.85
2022-11-15T08:13:11.893Z,101181.48
2022-11-15T08:15:40.492Z,101177.67
2022-11-15T08:18:14.789Z,101170.61
2022-11-15T08:20:43.988Z,101181.78
2022-11-15T08:23:13.090Z,101178.68
2022-11-15T08:25:41.508Z,101182.85
2022-11-15T08:28:11.696Z,101181.61
2022-11-15T08:30:42.749Z,101181.95
2022-11-15T08:33:13.591Z,101183.28
2022-11-15T08:35:45.654Z,101183.52
2022-11-15T08:38:13.863Z,101184.36
2022-11-15T08:40:42.209Z,101183.49
2022-11-15T08:43:10.799Z,101180.43
2022-11-15T08:45:39.081Z,101179.33
2022-11-15T08:48:07.354Z,101174.49
2022-11-15T08:50:35.843Z,101173.38
2022-11-15T08:53:09.956Z,101170.98
2022-11-15T08:55:39.466Z,101165.27
2022-11-15T08:58:07.950Z,101162.06
2022-11-15T09:00:35.993Z,101160.92
2022-11-15T09:03:08.205Z,101165.84
2022-11-15T09:05:39.341Z,101167.64
2022-11-15T09:08:25.600Z,101168.34
2022-11-15T09:10:56.280Z,101167.45
2022-11-15T09:13:24.567Z,101164.88
2022-11-15T09:15:52.730Z,101160.85
2022-11-15T09:18:22.339Z,101161.52
2022-11-15T09:20:50.666Z,101161.99
2022-11-15T09:23:19.008Z,101161.86
2022-11-15T09:25:47.289Z,101160.74
2022-11-15T09:28:15.470Z,101164.16
2022-11-15T09:30:43.637Z,101162.42
2022-11-15T09:33:13.457Z,101167.27
2022-11-15T09:35:41.841Z,101170.77
2022-11-15T09:38:09.911Z,101166.29
2022-11-15T09:40:38.807Z,101163.71
2022-11-15T09:43:25.507Z,101156.52
2022-11-15T09:46:11.390Z,101157.08
2022-11-15T09:49:02.285Z,101153.48
2022-11-15T09:51:39.675Z,101150.19
2022-11-15T09:57:16.540Z,101142.30
2022-11-15T09:59:44.837Z,101138.20
2022-11-15T10:02:34.507Z,101137.23
2022-11-15T10:05:03.515Z,101134.41
2022-11-15T10:07:43.958Z,101134.48
2022-11-15T10:10:25.874Z,101140.76
2022-11-15T10:12:54.743Z,101149.86
2022-11-15T10:15:23.236Z,101149.11
2022-11-15T10:17:57.345Z,101151.98
2022-11-15T10:20:28.623Z,101148.46
2022-11-15T10:23:01.488Z,101147.73
2022-11-15T10:25:32.625Z,101141.06
2022-11-15T10:28:11.290Z,101137.69
2022-11-15T10:30:51.940Z,101132.79
2022-11-15T10:33:38.424Z,101128.39
2022-11-15T10:36:20.721Z,101122.06
2022-11-15T10:38:51.688Z,101120.30
2022-11-15T10:41:30.183Z,101114.35
2022-11-15T10:44:18.447Z,101110.89
2022-11-15T10:47:06.683Z,101109.37
2022-11-15T10:49:36.299Z,101108.45
2022-11-15T10:52:18.126Z,101104.21
2022-11-15T10:54:58.753Z,101099.17
2022-11-15T10:57:31.810Z,101093.61
2022-11-15T11:00:03.763Z,101093.67
2022-11-15T11:02:38.144Z,101086.67
2022-11-15T11:05:26.807Z,101075.00
2022-11-15T11:08:01.252Z,101063.30
2022-11-15T11:10:50.288Z,101055.08
2022-11-15T11:13:30.639Z,101056.05
2022-11-15T11:16:20.718Z,101052.45
2022-11-15T11:18:49.203Z,101043.20
2022-11-15T11:21:45.520Z,101035.73
2022-11-15T11:24:35.702Z,101033.93
2022-11-15T11:27:17.796Z,101026.70
2022-11-15T11:29:48.845Z,101024.40
2022-11-15T11:32:41.819Z,101023.11
2022-11-15T11:35:18.764Z,101019.83
2022-11-15T11:38:05.155Z,101018.14
2022-11-15T11:40:51.693Z,101017.94
2022-11-15T11:43:33.917Z,101015.78
2022-11-15T11:46:11.200Z,101013.83
2022-11-15T11:48:45.323Z,101016.88
2022-11-15T11:51:24.582Z,101014.46
2022-11-15T11:54:12.513Z,101010.73
2022-11-15T11:56:44.414Z,101003.16
2022-11-15T11:59:32.302Z,100999.30
2022-11-15T12:02:09.771Z,101001.67
2022-11-15T12:04:42.137Z,100997.52
2022-11-15T12:07:18.680Z,100990.34
2022-11-15T12:10:08.815Z,100983.79
2022-11-15T12:12:43.884Z,100977.17
2022-11-15T12:15:19.522Z,100973.32
2022-11-15T12:17:49.356Z,100963.38
2022-11-15T12:20:21.906Z,100956.70
2022-11-15T12:23:18.830Z,100955.40
2022-11-15T12:25:53.040Z,100951.17
2022-11-15T12:28:27.460Z,100948.19
2022-11-15T12:31:03.010Z,100942.08
2022-11-15T12:33:47.508Z,100933.65
2022-11-15T12:36:21.981Z,100926.58
2022-11-15T12:38:55.073Z,100922.77
2022-11-15T12:41:26.218Z,100919.84
2022-11-15T12:43:54.599Z,100919.50
2022-11-15T12:46:25.954Z,100914.07
2022-11-15T12:48:57.466Z,100905.13
2022-11-15T12:51:44.001Z,100901.16
2022-11-15T12:54:24.586Z,100904.41
2022-11-15T12:57:05.125Z,100898.24
2022-11-15T13:00:04.007Z,100893.61
2022-11-15T13:02:39.835Z,100889.52
2022-11-15T13:05:17.146Z,100885.11
2022-11-15T13:07:45.219Z,100879.03
2022-11-15T13:10:13.193Z,100872.77
2022-11-15T13:12:41.164Z,100865.27
2022-11-15T13:15:15.379Z,100861.89
2022-11-15T13:17:54.510Z,100859.63
2022-11-15T13:20:31.389Z,100857.75
2022-11-15T13:22:59.460Z,100855.05
2022-11-15T13:25:49.426Z,100854.20
2022-11-15T13:28:17.623Z,100849.55
2022-11-15T13:30:48.759Z,100844.81
2022-11-15T13:33:20.492Z,100845.30
2022-11-15T13:35:57.863Z,100845.52
2022-11-15T13:38:26.098Z,100844.66
2022-11-15T13:40:54.721Z,100840.23
2022-11-15T13:43:22.855Z,100842.70
2022-11-15T13:46:19.380Z,100847.48
2022-11-15T13:48:56.665Z,100839.16
2022-11-15T13:51:28.204Z,100840.39
2022-11-15T13:54:02.206Z,100828.13
2022-11-15T13:56:33.279Z,100827.81
2022-11-15T13:59:09.659Z,100815.26
2022-11-15T14:01:38.325Z,100812.52
2022-11-15T14:04:06.511Z,100811.59
2022-11-15T14:06:47.175Z,100803.55
2022-11-15T14:09:15.620Z,100799.55
2022-11-15T14:11:55.405Z,100798.36
2022-11-15T14:14:28.802Z,100795.16
2022-11-15T14:16:59.701Z,100791.36
2022-11-15T14:19:28.016Z,100792.00
2022-11-15T14:22:14.253Z,100782.25
2022-11-15T14:24:45.377Z,100779.35
2022-11-15T14:27:31.333Z,100783.13
2022-11-15T14:29:59.729Z,100777.52
2022-11-15T14:32:43.662Z,100766.70
2022-11-15T14:35:16.905Z,100765.90
2022-11-15T14:37:45.754Z,100773.61
2022-11-15T14:40:18.769Z,100770.91
2022-11-15T14:42:48.853Z,100766.61
2022-11-15T14:45:19.625Z,100773.91
2022-11-15T14:47:48.895Z,100775.95
2022-11-15T14:50:19.960Z,100772.77
2022-11-15T14:52:49.455Z,100774.91
2022-11-15T14:55:26.447Z,100774.92
2022-11-15T14:57:54.715Z,100769.90
2022-11-15T15:00:23.812Z,100768.14
2022-11-15T15:02:54.736Z,100767.98
2022-11-15T15:05:43.490Z,100763.96
2022-11-15T15:08:12.172Z,100759.39
2022-11-15T15:10:43.907Z,100752.88
2022-11-15T15:13:19.454Z,100750.70
2022-11-15T15:15:48.693Z,100759.12
2022-11-15T15:18:17.745Z,100756.38
2022-11-15T15:20:48.825Z,100755.91
2022-11-15T15:23:21.416Z,100751.06
2022-11-15T15:25:50.203Z,100746.92
2022-11-15T15:28:18.671Z,100747.89
2022-11-15T15:30:46.873Z,100756.52
2022-11-15T15:33:15.150Z,100751.04
2022-11-15T15:35:43.551Z,100748.69
2022-11-15T15:38:14.988Z,100749.76
2022-11-15T15:40:43.068Z,100749.52
2022-11-15T15:43:11.188Z,100756.72
2022-11-15T15:45:42.303Z,100747.13
2022-11-15T15:48:14.086Z,100746.99
2022-11-15T15:50:43.040Z,100747.77
2022-11-15T15:53:12.754Z,100747.51
2022-11-15T15:55:41.237Z,100748.90
2022-11-15T15:58:09.879Z,100747.65
2022-11-15T16:00:39.236Z,100742.29
2022-11-15T16:03:07.632Z,100741.39
2022-11-15T16:05:35.900Z,100738.83
2022-11-15T16:08:05.305Z,100738.04
2022-11-15T16:10:35.438Z,100737.19
2022-11-15T16:13:04.433Z,100743.83
2022-11-15T16:15:33.347Z,100744.46
2022-11-15T16:18:02.659Z,100749.31
2022-11-15T16:20:40.629Z,100751.93
2022-11-15T16:23:11.875Z,100753.43
2022-11-15T16:25:50.291Z,100747.40
2022-11-15T16:28:24.847Z,100751.15
2022-11-15T16:31:09.772Z,100755.03
2022-11-15T16:33:38.792Z,100751.82
2022-11-15T16:36:15.687Z,100748.21
2022-11-15T16:38:44.128Z,100748.59
2022-11-15T16:41:12.309Z,100755.60
2022-11-15T16:43:40.486Z,100760.13
2022-11-15T16:46:15.404Z,100758.18
2022-11-15T16:48:43.929Z,100764.56
2022-11-15T16:51:12.901Z,100756.55
2022-11-15T16:53:41.692Z,100749.55
2022-11-15T16:56:30.364Z,100742.53
2022-11-15T16:59:00.764Z,100740.14
2022-11-15T17:01:31.708Z,100736.88
2022-11-15T17:04:00.199Z,100742.95
2022-11-15T17:06:28.779Z,100745.23
2022-11-15T17:08:57.369Z,100746.98
2022-11-15T17:11:25.657Z,100755.52
2022-11-15T17:13:58.547Z,100756.98
2022-11-15T17:16:26.814Z,100756.66
2022-11-15T17:18:55.158Z,100750.81
2022-11-15T17:21:23.687Z,100748.60
2022-11-15T17:23:51.894Z,100750.37
2022-11-15T17:26:40.307Z,100751.17
2022-11-15T17:29:08.994Z,100749.14
2022-11-15T17:31:38.194Z,100747.45
2022-11-15T17:34:07.135Z,100743.33
2022-11-15T17:36:35.574Z,100746.17
2022-11-15T17:39:04.896Z,100747.98
2022-11-15T17:41:33.059Z,100741.14
2022-11-15T17:44:01.439Z,100728.88
2022-11-15T17:46:30.333Z,100728.38
2022-11-15T17:48:59.025Z,100729.60
2022-11-15T17:51:27.202Z,100731.73
2022-11-15T17:53:56.313Z,100730.45
2022-11-15T17:56:26.906Z,100730.48
2022-11-15T17:58:58.731Z,100737.05
2022-11-15T18:01:28.286Z,100730.80
2022-11-15T18:03:57.932Z,100730.84
2022-11-15T18:06:27.545Z,100733.12
2022-11-15T18:08:56.130Z,100727.81
2022-11-15T18:11:27.890Z,100733.69
2022-11-15T18:14:00.768Z,100737.45
2022-11-15T18:16:31.868Z,100737.82
2022-11-15T18:19:00.711Z,100736.90
2022-11-15T18:21:31.554Z,100729.87
2022-11-15T18:24:01.669Z,100727.33
2022-11-15T18:26:30.968Z,100728.52
2022-11-15T18:29:04.776Z,100731.48
2022-11-15T18:31:33.256Z,100737.97
2022-11-15T18:34:01.671Z,100738.02
2022-11-15T18:36:31.330Z,100736.72
2022-11-15T18:39:02.052Z,100733.71
2022-11-15T18:41:31.467Z,100730.35
2022-11-15T18:44:01.414Z,100720.84
2022-11-15T18:46:32.473Z,100721.59
2022-11-15T18:49:02.278Z,100724.98
2022-11-15T18:51:31.613Z,100725.61
2022-11-15T18:54:01.904Z,100723.30
2022-11-15T18:56:31.984Z,100722.61
2022-11-15T18:59:02.415Z,100727.02
2022-11-15T19:01:34.826Z,100725.59
2022-11-15T19:04:13.014Z,100729.09
2022-11-15T19:06:43.470Z,100737.04
2022-11-15T19:09:15.205Z,100735.71
2022-11-15T19:11:45.864Z,100732.52
2022-11-15T19:14:19.571Z,100724.98
2022-11-15T19:16:48.768Z,100723.33
2022-11-15T19:19:19.716Z,100726.10
2022-11-15T19:21:48.296Z,100733.77
2022-11-15T19:24:16.373Z,100740.27
2022-11-15T19:26:44.970Z,100749.66
2022-11-15T19:29:13.155Z,100753.99
2022-11-15T19:31:42.466Z,100764.29
2022-11-15T19:34:11.545Z,100763.83
2022-11-15T19:36:44.447Z,100766.30
2022-11-15T19:39:14.415Z,100759.18
2022-11-15T19:41:44.098Z,100754.13
2022-11-15T19:44:13.309Z,100753.71
2022-11-15T19:46:42.160Z,100761.35
2022-11-15T19:49:11.219Z,100765.16
2022-11-15T19:51:40.455Z,100764.60
2022-11-15T19:54:09.277Z,100763.36
2022-11-15T19:56:38.249Z,100763.60
2022-11-15T19:59:06.731Z,100764.05
2022-11-15T20:01:36.615Z,100766.33
2022-11-15T20:04:06.568Z,100766.17
2022-11-15T20:06:38.873Z,100761.45
2022-11-15T20:09:07.528Z,100762.30
2022-11-15T20:11:35.707Z,100765.52
2022-11-15T20:14:04.295Z,100769.66
2022-11-15T20:16:32.679Z,100769.52
2022-11-15T20:19:01.266Z,100767.97
2022-11-15T20:21:29.859Z,100769.86
2022-11-15T20:23:57.929Z,100771.03
2022-11-15T20:26:26.325Z,100777.44
2022-11-15T20:28:54.592Z,100781.86
2022-11-15T20:31:22.772Z,100778.51
2022-11-15T20:33:51.871Z,100777.11
2022-11-15T20:36:20.055Z,100775.84
2022-11-15T20:38:48.200Z,100787.25
2022-11-15T20:41:16.411Z,100789.50
2022-11-15T20:43:44.994Z,100790.70
2022-11-15T20:46:13.788Z,100790.01
2022-11-15T20:48:41.863Z,100785.73
2022-11-15T20:51:13.132Z,100779.00
2022-11-15T20:53:45.693Z,100778.64
2022-11-15T20:56:16.521Z,100767.73
2022-11-15T20:58:45.527Z,100760.21
2022-11-15T21:01:15.331Z,100758.55
2022-11-15T21:03:43.947Z,100758.65
2022-11-15T21:06:12.414Z,100757.08
2022-11-15T21:08:40.591Z,100758.86
2022-11-15T21:11:09.690Z,100757.39
2022-11-15T21:13:39.300Z,100760.13
2022-11-15T21:16:08.094Z,100763.66
2022-11-15T21:18:36.502Z,100762.30
2022-11-15T21:21:05.986Z,100766.75
2022-11-15T21:23:34.062Z,100773.92
2022-11-15T21:26:02.250Z,100778.98
2022-11-15T21:28:31.268Z,100783.52
2022-11-15T21:31:00.955Z,100777.23
2022-11-15T21:33:29.437Z,100777.83
2022-11-15T21:35:58.149Z,100785.59
2022-11-15T21:38:28.455Z,100784.34
2022-11-15T21:40:56.838Z,100779.80
2022-11-15T21:43:25.116Z,100783.58
2022-11-15T21:46:01.076Z,100782.59
2022-11-15T21:48:31.508Z,100784.42
2022-11-15T21:51:02.439Z,100778.28
2022-11-15T21:53:31.237Z,100780.57
2022-11-15T21:56:00.439Z,100783.90
2022-11-15T21:58:29.167Z,100778.67
2022-11-15T22:00:58.138Z,100785.66
2022-11-15T22:03:26.209Z,100785.04
2022-11-15T22:05:54.891Z,100780.93
2022-11-15T22:08:23.069Z,100787.50
2022-11-15T22:10:51.901Z,100785.69
2022-11-15T22:13:20.350Z,100781.27
2022-11-15T22:15:48.528Z,100775.27
2022-11-15T22:18:16.703Z,100769.45
2022-11-15T22:21:02.488Z,100768.63
2022-11-15T22:23:33.158Z,100763.10
2022-11-15T22:26:02.322Z,100764.45
2022-11-15T22:28:30.931Z,100757.08
2022-11-15T22:30:59.802Z,100753.84
2022-11-15T22:33:30.514Z,100742.20
2022-11-15T22:35:59.228Z,100741.23
2022-11-15T22:38:28.228Z,100738.91
2022-11-15T22:40:57.119Z,100736.73
2022-11-15T22:43:26.415Z,100737.45
2022-11-15T22:45:55.728Z,100733.46
2022-11-15T22:48:33.052Z,100726.55
2022-11-15T22:51:01.814Z,100729.05
2022-11-15T22:53:30.804Z,100726.69
2022-11-15T22:56:01.233Z,100730.36
2022-11-15T22:58:31.763Z,100730.08
2022-11-15T23:01:03.142Z,100730.22
2022-11-15T23:03:32.705Z,100723.20
2022-11-15T23:06:07.937Z,100731.14
2022-11-15T23:08:36.333Z,100738.98
2022-11-15T23:11:05.461Z,100738.89
2022-11-15T23:13:34.317Z,100738.13
2022-11-15T23:16:07.932Z,100737.21
2022-11-15T23:18:40.832Z,100737.98
2022-11-15T23:21:14.660Z,100737.92
2022-11-15T23:23:42.817Z,100737.63
2022-11-15T23:26:11.096Z,100734.52
2022-11-15T23:28:39.480Z,100733.80
2022-11-15T23:31:08.372Z,100730.84
2022-11-15T23:33:36.756Z,100726.70
2022-11-15T23:36:05.555Z,100721.65
2022-11-15T23:38:37.417Z,100718.45
2022-11-15T23:41:06.727Z,100715.39
2022-11-15T23:43:35.013Z,100710.04
2022-11-15T23:46:03.757Z,100709.60
2022-11-15T23:48:32.468Z,100708.04
2022-11-15T23:51:00.862Z,100710.64
2022-11-15T23:53:29.457Z,100710.27
2022-11-15T23:56:01.757Z,100705.23
2022-11-15T23:58:30.655Z,100696.81
